Terminal Aerodrome Forecast
Issued by NWS St Louis, MO

Home | Current Version | Previous Version | Text Only | Print | Product List | Glossary On
Versions: 1 2 3 4 5 6 7 8 9 10 11 12 13 14 15 16 17 18
000
FTUS43 KLSX 301700
TAFCOU
TAF
KCOU 301720Z 3018/3118 19009KT P6SM SCT050 OVC090
      TEMPO 3018/3019 -SHRA
     FM302100 26008KT P6SM SCT060
     FM310000 34008KT P6SM SCT060
     FM310900 34017G26KT P6SM BKN030
     FM311400 35017G26KT P6SM FEW050=

USA.gov is the U.S. government's official web portal to all federal, state and local government web resources and services.